Time;durP1;ratioP1;P1;durP2;ratioP2;P2;SDS_P1;SDS_P2;PMS_P1;PMS_P2;Temp;Humidity;BMP_temperature;BMP_pressure;BME280_temperature;BME280_humidity;BME280_pressure;Samples;Min_cycle;Max_cycle;Signal;HPM_P1;HPM_P2
2023/07/07 00:01:44;;;;;;;4.35;3.28;;;;;;;;;;5096242;28;20051;-82
2023/07/07 00:04:11;;;;;;;3.67;3.38;;;;;;;;;;5095998;28;20485;-82
2023/07/07 00:06:37;;;;;;;4.32;3.92;;;;;;;;;;5114010;28;20044;-82
2023/07/07 00:09:03;;;;;;;4.40;4.05;;;;;;;;;;5113098;28;20055;-82
2023/07/07 00:11:29;;;;;;;4.25;3.92;;;;;;;;;;5112892;28;20101;-82
2023/07/07 00:13:55;;;;;;;4.05;3.70;;;;;;;;;;5113011;28;20050;-83
2023/07/07 00:16:27;;;;;;;4.00;3.63;;;;;;;;;;5095758;28;20052;-83
2023/07/07 00:18:54;;;;;;;4.15;3.85;;;;;;;;;;5095759;28;20047;-82
2023/07/07 00:21:24;;;;;;;4.20;4.00;;;;;;;;;;5112680;28;20138;-82
2023/07/07 00:23:55;;;;;;;5.63;5.13;;;;;;;;;;5096508;28;20408;-83
2023/07/07 00:26:22;;;;;;;5.82;5.43;;;;;;;;;;5113879;28;20232;-83
2023/07/07 00:28:48;;;;;;;5.20;4.75;;;;;;;;;;5095620;28;20424;-83
2023/07/07 00:31:15;;;;;;;4.95;4.60;;;;;;;;;;5096171;28;20130;-83
2023/07/07 00:33:41;;;;;;;5.55;5.15;;;;;;;;;;5113554;28;20495;-83
2023/07/07 00:36:07;;;;;;;6.15;5.75;;;;;;;;;;5095931;28;20043;-83
2023/07/07 00:38:34;;;;;;;6.40;6.00;;;;;;;;;;5113782;28;20058;-83
2023/07/07 00:41:01;;;;;;;7.18;6.47;;;;;;;;;;5113425;28;20054;-83
2023/07/07 00:43:27;;;;;;;7.32;6.82;;;;;;;;;;5112728;28;20523;-83
2023/07/07 00:45:53;;;;;;;8.23;7.65;;;;;;;;;;5113708;28;20085;-83
2023/07/07 00:48:31;;;;;;;8.80;7.75;;;;;;;;;;5112203;28;20040;-83
2023/07/07 00:51:17;;;;;;;9.77;8.88;;;;;;;;;;5113674;28;20039;-82
2023/07/07 00:53:45;;;;;;;12.20;11.05;;;;;;;;;;5095364;28;20048;-83
2023/07/07 00:56:14;;;;;;;10.82;9.93;;;;;;;;;;5095589;28;20051;-83
2023/07/07 00:58:41;;;;;;;11.32;10.43;;;;;;;;;;5111973;28;20051;-83
2023/07/07 01:01:13;;;;;;;13.30;11.38;;;;;;;;;;5095398;28;20048;-83
2023/07/07 01:03:41;;;;;;;11.70;10.77;;;;;;;;;;5112572;28;20055;-82
2023/07/07 01:06:09;;;;;;;10.85;9.73;;;;;;;;;;5115953;28;20400;-83
2023/07/07 01:08:37;;;;;;;14.80;13.38;;;;;;;;;;5116908;28;20576;-83
2023/07/07 01:11:03;;;;;;;12.32;11.30;;;;;;;;;;5116311;28;20088;-82
2023/07/07 01:13:29;;;;;;;13.15;11.98;;;;;;;;;;5116352;28;20389;-83
2023/07/07 01:16:04;;;;;;;16.13;13.20;;;;;;;;;;5117152;28;20431;-82
2023/07/07 01:18:43;;;;;;;14.70;13.40;;;;;;;;;;5115772;28;20063;-83
2023/07/07 01:21:18;;;;;;;14.48;13.23;;;;;;;;;;5115832;28;20045;-82
2023/07/07 01:23:47;;;;;;;15.18;12.90;;;;;;;;;;5115935;28;20067;-83
2023/07/07 01:26:35;;;;;;;13.85;12.40;;;;;;;;;;5115745;28;20134;-83
2023/07/07 01:29:14;;;;;;;14.85;13.45;;;;;;;;;;5116140;28;20043;-82
2023/07/07 01:31:43;;;;;;;14.48;13.02;;;;;;;;;;5115987;28;20055;-82
2023/07/07 01:34:11;;;;;;;15.57;14.18;;;;;;;;;;5116690;28;20105;-83
2023/07/07 01:36:37;;;;;;;14.32;12.90;;;;;;;;;;5116958;28;20071;-83
2023/07/07 01:39:03;;;;;;;14.55;13.35;;;;;;;;;;5116829;28;20049;-83
2023/07/07 01:41:32;;;;;;;14.73;13.35;;;;;;;;;;5098708;28;20040;-83
2023/07/07 01:44:01;;;;;;;13.35;12.02;;;;;;;;;;5115920;28;20557;-83
2023/07/07 01:46:28;;;;;;;14.23;12.88;;;;;;;;;;5116207;28;20039;-83
2023/07/07 01:49:18;;;;;;;15.45;13.27;;;;;;;;;;5099886;28;20055;-83
2023/07/07 01:52:01;;;;;;;13.60;12.55;;;;;;;;;;5115672;28;20370;-83
2023/07/07 01:54:30;;;;;;;13.38;12.15;;;;;;;;;;5117020;28;20059;-83
2023/07/07 01:56:57;;;;;;;14.30;13.13;;;;;;;;;;5114955;28;20044;-83
2023/07/07 01:59:24;;;;;;;14.75;13.32;;;;;;;;;;5116255;28;20066;-83
2023/07/07 02:01:50;;;;;;;15.07;13.50;;;;;;;;;;5116252;28;20055;-83
2023/07/07 02:04:16;;;;;;;13.85;12.65;;;;;;;;;;5115005;28;20043;-82
2023/07/07 02:06:42;;;;;;;15.93;14.48;;;;;;;;;;5098436;28;20043;-83
2023/07/07 02:09:08;;;;;;;15.25;13.70;;;;;;;;;;5114570;28;20496;-83
2023/07/07 02:11:34;;;;;;;15.25;13.73;;;;;;;;;;5114820;28;20044;-83
2023/07/07 02:14:00;;;;;;;15.50;14.02;;;;;;;;;;5114841;28;20196;-83
2023/07/07 02:16:26;;;;;;;15.30;13.95;;;;;;;;;;5114003;28;20442;-83
2023/07/07 02:18:52;;;;;;;14.90;13.48;;;;;;;;;;5114688;28;20047;-83
2023/07/07 02:21:19;;;;;;;14.25;12.88;;;;;;;;;;5097778;28;20062;-82
2023/07/07 02:23:45;;;;;;;15.00;13.60;;;;;;;;;;5114514;28;20050;-83
2023/07/07 02:26:13;;;;;;;15.18;13.88;;;;;;;;;;5115562;28;20044;-83
2023/07/07 02:28:40;;;;;;;14.48;13.38;;;;;;;;;;5098242;28;20066;-83
2023/07/07 02:31:06;;;;;;;15.88;14.40;;;;;;;;;;5115572;28;20055;-83
2023/07/07 02:33:32;;;;;;;17.05;14.52;;;;;;;;;;5114614;28;20083;-82
2023/07/07 02:36:03;;;;;;;15.52;14.13;;;;;;;;;;5114581;28;20138;-83
2023/07/07 02:38:29;;;;;;;14.82;13.50;;;;;;;;;;5114482;28;20040;-83
2023/07/07 02:40:56;;;;;;;16.08;14.68;;;;;;;;;;5115567;28;20392;-83
2023/07/07 02:43:22;;;;;;;14.45;13.25;;;;;;;;;;5097285;28;20087;-83
2023/07/07 02:45:48;;;;;;;16.05;14.65;;;;;;;;;;5097172;28;20096;-82
2023/07/07 02:48:14;;;;;;;15.20;13.93;;;;;;;;;;5096969;28;20507;-83
2023/07/07 02:50:40;;;;;;;14.52;13.23;;;;;;;;;;5115201;28;20130;-83
2023/07/07 02:53:06;;;;;;;14.90;13.52;;;;;;;;;;5114135;28;20047;-83
2023/07/07 02:55:32;;;;;;;14.07;12.68;;;;;;;;;;5114020;28;20043;-83
2023/07/07 02:57:59;;;;;;;17.80;16.20;;;;;;;;;;5114555;28;20044;-83
2023/07/07 03:00:25;;;;;;;15.00;13.57;;;;;;;;;;5113935;28;20393;-82
2023/07/07 03:02:51;;;;;;;17.63;15.35;;;;;;;;;;5113801;28;20058;-83
2023/07/07 03:05:17;;;;;;;17.48;15.00;;;;;;;;;;5114825;28;20044;-82
2023/07/07 03:07:43;;;;;;;16.58;15.13;;;;;;;;;;5113959;28;20388;-83
2023/07/07 03:10:09;;;;;;;17.17;15.38;;;;;;;;;;5114886;28;20463;-83
2023/07/07 03:12:35;;;;;;;17.10;15.38;;;;;;;;;;5113806;28;20058;-82
2023/07/07 03:15:04;;;;;;;15.82;14.35;;;;;;;;;;5113581;28;20419;-83
2023/07/07 03:17:31;;;;;;;15.38;14.02;;;;;;;;;;5113055;28;20504;-83
2023/07/07 03:19:57;;;;;;;16.77;15.18;;;;;;;;;;5096872;28;20047;-82
2023/07/07 03:22:23;;;;;;;16.50;14.90;;;;;;;;;;5113790;28;20046;-83
2023/07/07 03:24:52;;;;;;;16.83;15.32;;;;;;;;;;5113583;28;20079;-82
2023/07/07 03:27:18;;;;;;;14.65;13.43;;;;;;;;;;5112628;28;20135;-82
2023/07/07 03:29:44;;;;;;;15.40;14.10;;;;;;;;;;5113391;28;20048;-83
2023/07/07 03:32:11;;;;;;;15.32;13.98;;;;;;;;;;5096544;28;20085;-83
2023/07/07 03:34:41;;;;;;;15.63;14.30;;;;;;;;;;5096568;28;20048;-83
2023/07/07 03:37:07;;;;;;;16.30;14.82;;;;;;;;;;5114488;28;20489;-82
2023/07/07 03:39:33;;;;;;;18.50;16.98;;;;;;;;;;5097040;28;20051;-83
2023/07/07 03:41:59;;;;;;;15.57;14.20;;;;;;;;;;5079733;28;20047;-82
2023/07/07 03:44:25;;;;;;;16.45;14.80;;;;;;;;;;5079769;28;20052;-82
2023/07/07 03:46:51;;;;;;;16.65;15.15;;;;;;;;;;5113801;28;20044;-83
2023/07/07 03:49:17;;;;;;;16.33;14.80;;;;;;;;;;5114389;28;20401;-83
2023/07/07 03:51:43;;;;;;;16.05;14.63;;;;;;;;;;5113104;28;20107;-83
2023/07/07 03:54:09;;;;;;;15.95;14.25;;;;;;;;;;5114401;28;20051;-83
2023/07/07 03:56:35;;;;;;;16.20;14.68;;;;;;;;;;5113188;28;20048;-83
2023/07/07 03:59:03;;;;;;;17.02;15.23;;;;;;;;;;5113947;28;20055;-83
2023/07/07 04:01:29;;;;;;;14.82;13.52;;;;;;;;;;5112894;28;20058;-83
2023/07/07 04:03:56;;;;;;;14.43;13.20;;;;;;;;;;5113306;28;20040;-83
2023/07/07 04:06:23;;;;;;;14.52;13.32;;;;;;;;;;5112833;28;20044;-83
2023/07/07 04:08:49;;;;;;;15.32;13.18;;;;;;;;;;5113074;28;20054;-83
2023/07/07 04:11:16;;;;;;;15.70;12.98;;;;;;;;;;5113948;28;20524;-83
2023/07/07 04:13:43;;;;;;;15.32;12.52;;;;;;;;;;5112887;28;20044;-83
2023/07/07 04:16:13;;;;;;;14.73;13.38;;;;;;;;;;5096006;28;20039;-83
2023/07/07 04:18:39;;;;;;;14.30;12.90;;;;;;;;;;5112589;28;20095;-83
2023/07/07 04:21:07;;;;;;;13.85;12.45;;;;;;;;;;5112987;28;20055;-83
2023/07/07 04:23:34;;;;;;;14.43;13.15;;;;;;;;;;5112692;28;20055;-83
2023/07/07 04:26:00;;;;;;;13.93;12.60;;;;;;;;;;5114187;28;20043;-83
2023/07/07 04:28:29;;;;;;;13.63;12.32;;;;;;;;;;5112936;28;20055;-83
2023/07/07 04:30:56;;;;;;;13.50;12.18;;;;;;;;;;5113869;28;20052;-83
2023/07/07 04:33:23;;;;;;;12.95;11.95;;;;;;;;;;5112567;28;20062;-83
2023/07/07 04:35:53;;;;;;;12.50;11.40;;;;;;;;;;5114382;28;20039;-83
2023/07/07 04:38:19;;;;;;;13.13;11.93;;;;;;;;;;5113611;28;20114;-83
2023/07/07 04:40:46;;;;;;;12.23;11.02;;;;;;;;;;5099846;28;20393;-83
2023/07/07 04:43:12;;;;;;;13.43;11.30;;;;;;;;;;5116716;28;20079;-83
2023/07/07 04:45:38;;;;;;;12.93;11.73;;;;;;;;;;5116597;28;20035;-83
2023/07/07 04:48:04;;;;;;;12.07;11.07;;;;;;;;;;5082562;28;20058;-83
2023/07/07 04:50:33;;;;;;;12.45;11.27;;;;;;;;;;5099666;28;20051;-83
2023/07/07 04:52:59;;;;;;;13.18;11.93;;;;;;;;;;5099712;28;20397;-84
2023/07/07 04:55:25;;;;;;;12.90;11.60;;;;;;;;;;5116709;28;20046;-83
2023/07/07 04:57:51;;;;;;;13.27;11.85;;;;;;;;;;5116045;28;20070;-83
2023/07/07 05:00:17;;;;;;;13.15;11.93;;;;;;;;;;5116400;28;20511;-83
2023/07/07 05:02:44;;;;;;;12.85;11.60;;;;;;;;;;5116414;28;20039;-83
2023/07/07 05:05:11;;;;;;;11.60;10.38;;;;;;;;;;5117601;28;20052;-83
2023/07/07 05:07:37;;;;;;;12.30;11.10;;;;;;;;;;5099129;28;20069;-83
2023/07/07 05:10:03;;;;;;;11.73;10.70;;;;;;;;;;5116119;28;20050;-83
2023/07/07 05:12:29;;;;;;;13.02;10.88;;;;;;;;;;5116370;28;20378;-83
2023/07/07 05:14:55;;;;;;;11.85;10.73;;;;;;;;;;5099786;28;20090;-83
2023/07/07 05:17:21;;;;;;;11.48;10.57;;;;;;;;;;5115583;28;20091;-83
2023/07/07 05:19:47;;;;;;;12.73;11.65;;;;;;;;;;5117054;28;20044;-83
2023/07/07 05:22:13;;;;;;;11.05;10.07;;;;;;;;;;5116412;28;20047;-83
2023/07/07 05:24:39;;;;;;;12.77;11.65;;;;;;;;;;5099108;28;20051;-83
2023/07/07 05:27:06;;;;;;;12.27;11.20;;;;;;;;;;5115803;28;20044;-82
2023/07/07 05:29:32;;;;;;;12.02;10.93;;;;;;;;;;5116278;28;20062;-83
2023/07/07 05:31:58;;;;;;;12.20;11.10;;;;;;;;;;5099134;28;20050;-83
2023/07/07 05:34:24;;;;;;;11.52;10.55;;;;;;;;;;5115960;28;20066;-83
2023/07/07 05:36:50;;;;;;;11.35;10.35;;;;;;;;;;5116928;28;20043;-83
2023/07/07 05:39:16;;;;;;;11.07;9.85;;;;;;;;;;5098970;28;20070;-83
2023/07/07 05:41:42;;;;;;;12.07;9.93;;;;;;;;;;5116615;28;20134;-83
2023/07/07 05:44:09;;;;;;;10.65;9.85;;;;;;;;;;5098874;28;20051;-83
2023/07/07 05:46:35;;;;;;;12.20;9.20;;;;;;;;;;5098589;28;20040;-83
2023/07/07 05:49:01;;;;;;;9.88;8.65;;;;;;;;;;5116234;28;20419;-82
2023/07/07 05:51:27;;;;;;;10.25;9.25;;;;;;;;;;5097951;28;20458;-83
2023/07/07 05:53:53;;;;;;;10.18;9.27;;;;;;;;;;5116740;28;20097;-83
2023/07/07 05:56:20;;;;;;;10.48;9.50;;;;;;;;;;5098428;28;20489;-83
2023/07/07 05:58:47;;;;;;;9.18;8.38;;;;;;;;;;5114887;28;20143;-82
2023/07/07 06:01:13;;;;;;;8.77;7.80;;;;;;;;;;5097977;28;20450;-83
2023/07/07 06:03:40;;;;;;;9.38;8.52;;;;;;;;;;5116795;28;20050;-83
2023/07/07 06:06:06;;;;;;;10.07;8.30;;;;;;;;;;5114997;28;20469;-82
2023/07/07 06:08:33;;;;;;;10.18;8.40;;;;;;;;;;5115161;28;20093;-82
2023/07/07 06:10:59;;;;;;;8.10;7.35;;;;;;;;;;5115039;28;20046;-82
2023/07/07 06:13:27;;;;;;;7.72;6.95;;;;;;;;;;5115210;28;20052;-82
2023/07/07 06:15:53;;;;;;;8.15;7.45;;;;;;;;;;5098309;28;20537;-82
2023/07/07 06:18:19;;;;;;;7.28;6.68;;;;;;;;;;5114393;28;20047;-82
2023/07/07 06:20:49;;;;;;;7.95;7.15;;;;;;;;;;5115875;28;20050;-82
2023/07/07 06:23:15;;;;;;;7.75;7.00;;;;;;;;;;5114613;28;20047;-82
2023/07/07 06:25:41;;;;;;;6.65;6.03;;;;;;;;;;5114674;28;20093;-82
2023/07/07 06:28:07;;;;;;;6.90;6.22;;;;;;;;;;5115699;28;20047;-82
2023/07/07 06:30:33;;;;;;;6.32;5.72;;;;;;;;;;5114098;28;20109;-82
2023/07/07 06:33:02;;;;;;;7.03;6.32;;;;;;;;;;5115268;28;20560;-82
2023/07/07 06:35:29;;;;;;;7.32;5.90;;;;;;;;;;5097954;28;20046;-82
2023/07/07 06:37:55;;;;;;;10.63;5.65;;;;;;;;;;5115626;28;20047;-82
2023/07/07 06:40:21;;;;;;;6.05;5.30;;;;;;;;;;5114615;28;20039;-82
2023/07/07 06:42:50;;;;;;;6.95;5.03;;;;;;;;;;5097683;28;20112;-82
2023/07/07 06:45:16;;;;;;;5.93;4.85;;;;;;;;;;5115459;28;20051;-83
2023/07/07 06:47:42;;;;;;;6.75;4.45;;;;;;;;;;5114819;28;20047;-82
2023/07/07 06:50:14;;;;;;;4.43;3.90;;;;;;;;;;5114213;28;20043;-82
2023/07/07 06:52:40;;;;;;;6.57;3.95;;;;;;;;;;5114792;28;20143;-82
2023/07/07 06:55:06;;;;;;;4.20;3.60;;;;;;;;;;5115136;28;20043;-82
2023/07/07 06:57:32;;;;;;;4.80;3.63;;;;;;;;;;5115027;28;20073;-82
2023/07/07 06:59:58;;;;;;;6.32;3.25;;;;;;;;;;5115205;28;20056;-83
2023/07/07 07:02:24;;;;;;;3.53;3.17;;;;;;;;;;5113037;28;20052;-83
2023/07/07 07:04:50;;;;;;;3.97;3.40;;;;;;;;;;5113767;28;20400;-83
2023/07/07 07:07:16;;;;;;;3.17;2.60;;;;;;;;;;5114842;28;20079;-83
2023/07/07 07:09:42;;;;;;;5.15;2.95;;;;;;;;;;5114852;28;20044;-83
2023/07/07 07:12:09;;;;;;;5.28;2.78;;;;;;;;;;5113793;28;20134;-83
2023/07/07 07:14:35;;;;;;;2.92;1.98;;;;;;;;;;5113726;28;20085;-83
2023/07/07 07:17:01;;;;;;;4.95;2.58;;;;;;;;;;5113987;28;20492;-82
2023/07/07 07:19:27;;;;;;;2.35;1.73;;;;;;;;;;5113750;28;20040;-82
2023/07/07 07:21:53;;;;;;;4.05;2.38;;;;;;;;;;5113674;28;20043;-82
2023/07/07 07:24:19;;;;;;;3.33;1.50;;;;;;;;;;5113454;28;20089;-82
2023/07/07 07:26:45;;;;;;;3.78;1.30;;;;;;;;;;5113534;28;20044;-83
2023/07/07 07:29:14;;;;;;;2.45;1.40;;;;;;;;;;5096299;28;20039;-82
2023/07/07 07:31:40;;;;;;;4.13;1.83;;;;;;;;;;5113522;28;20059;-83
2023/07/07 07:34:24;;;;;;;2.33;1.42;;;;;;;;;;5113469;28;20389;-83
2023/07/07 07:36:51;;;;;;;2.35;1.10;;;;;;;;;;5113504;28;20048;-83
2023/07/07 07:39:17;;;;;;;2.17;1.08;;;;;;;;;;5114526;28;20078;-83
2023/07/07 07:41:46;;;;;;;2.67;1.10;;;;;;;;;;5114319;28;20043;-83
2023/07/07 07:44:12;;;;;;;2.25;1.05;;;;;;;;;;5096466;28;20062;-83
2023/07/07 07:46:38;;;;;;;2.40;1.20;;;;;;;;;;5113002;28;20043;-83
2023/07/07 07:49:04;;;;;;;2.55;1.38;;;;;;;;;;5113749;28;20499;-83
2023/07/07 07:51:30;;;;;;;1.98;1.30;;;;;;;;;;5113108;28;20047;-83
2023/07/07 07:53:56;;;;;;;2.63;1.13;;;;;;;;;;5096264;28;20047;-83
2023/07/07 07:56:22;;;;;;;1.50;0.80;;;;;;;;;;5096212;28;20067;-83
2023/07/07 07:58:48;;;;;;;2.90;0.88;;;;;;;;;;5112646;28;20112;-83
2023/07/07 08:01:14;;;;;;;4.18;0.70;;;;;;;;;;5112972;28;20074;-83
2023/07/07 08:03:40;;;;;;;2.95;1.10;;;;;;;;;;5112900;28;20056;-83
2023/07/07 08:06:06;;;;;;;2.28;0.90;;;;;;;;;;5096422;28;20048;-83
2023/07/07 08:08:32;;;;;;;1.85;0.63;;;;;;;;;;5112806;28;20134;-83
2023/07/07 08:10:59;;;;;;;1.98;0.80;;;;;;;;;;5112787;28;20047;-83
2023/07/07 08:13:25;;;;;;;6.32;1.08;;;;;;;;;;5096904;28;20055;-83
2023/07/07 08:15:51;;;;;;;3.35;1.05;;;;;;;;;;5117338;28;20063;-83
2023/07/07 08:18:17;;;;;;;2.45;0.85;;;;;;;;;;5100033;28;20505;-83
2023/07/07 08:20:43;;;;;;;6.47;1.00;;;;;;;;;;5117747;28;20399;-83
2023/07/07 08:23:09;;;;;;;2.67;0.70;;;;;;;;;;5099942;28;20561;-83
2023/07/07 08:25:35;;;;;;;2.50;0.50;;;;;;;;;;5117058;28;20050;-82
2023/07/07 08:28:01;;;;;;;2.05;0.50;;;;;;;;;;5099724;28;20051;-83
2023/07/07 08:30:27;;;;;;;2.90;0.60;;;;;;;;;;5099815;28;20573;-83
2023/07/07 08:32:54;;;;;;;1.52;0.70;;;;;;;;;;5118015;28;20113;-83
2023/07/07 08:35:20;;;;;;;1.02;0.40;;;;;;;;;;5100772;28;20093;-83
2023/07/07 08:37:47;;;;;;;2.08;0.50;;;;;;;;;;5116867;28;20058;-83
2023/07/07 08:40:18;;;;;;;1.85;0.73;;;;;;;;;;5083037;28;20053;-83
2023/07/07 08:42:45;;;;;;;0.95;0.57;;;;;;;;;;5116724;28;20040;-83
2023/07/07 08:45:16;;;;;;;2.45;0.50;;;;;;;;;;5117796;28;20134;-83
2023/07/07 08:47:42;;;;;;;1.55;0.60;;;;;;;;;;5099456;28;20047;-83
2023/07/07 08:50:08;;;;;;;1.63;0.50;;;;;;;;;;5116442;28;20055;-83
2023/07/07 08:52:43;;;;;;;2.83;0.40;;;;;;;;;;5117487;28;20047;-83
2023/07/07 08:55:25;;;;;;;1.10;0.40;;;;;;;;;;5116249;28;20503;-83
2023/07/07 08:57:55;;;;;;;1.13;0.40;;;;;;;;;;5099453;28;20059;-83
2023/07/07 09:00:29;;;;;;;1.13;0.50;;;;;;;;;;5098682;28;20063;-83
2023/07/07 09:03:02;;;;;;;1.75;0.40;;;;;;;;;;5117487;28;20058;-83
2023/07/07 09:05:35;;;;;;;3.03;0.63;;;;;;;;;;5116148;28;20126;-83
2023/07/07 09:08:19;;;;;;;1.40;0.50;;;;;;;;;;5099522;28;20051;-83
2023/07/07 09:10:56;;;;;;;2.20;0.50;;;;;;;;;;5116227;28;20048;-84
2023/07/07 09:13:28;;;;;;;1.20;0.60;;;;;;;;;;5099182;28;20054;-83
2023/07/07 09:16:04;;;;;;;0.98;0.57;;;;;;;;;;5115669;28;20058;-83
2023/07/07 09:18:34;;;;;;;1.05;0.55;;;;;;;;;;5115555;28;20051;-84
2023/07/07 09:21:02;;;;;;;0.85;0.50;;;;;;;;;;5115556;28;20496;-84
2023/07/07 09:23:35;;;;;;;2.30;0.50;;;;;;;;;;5115984;28;20184;-83
2023/07/07 09:26:03;;;;;;;1.10;0.50;;;;;;;;;;5116019;28;20047;-83
2023/07/07 09:28:32;;;;;;;1.88;0.50;;;;;;;;;;5116049;28;20044;-83
2023/07/07 09:31:18;;;;;;;1.13;0.55;;;;;;;;;;5115789;28;20083;-83
2023/07/07 09:33:44;;;;;;;2.60;0.50;;;;;;;;;;5102548;28;20135;-83
2023/07/07 09:36:15;;;;;;;1.55;0.43;;;;;;;;;;5115514;28;20040;-83
2023/07/07 09:39:07;;;;;;;1.85;0.40;;;;;;;;;;5098966;28;20095;-83
2023/07/07 09:41:42;;;;;;;1.20;0.50;;;;;;;;;;5116067;28;20501;-83
2023/07/07 09:44:20;;;;;;;7.53;0.75;;;;;;;;;;5098616;28;20058;-83
2023/07/07 09:46:59;;;;;;;2.13;0.50;;;;;;;;;;5115629;28;20075;-83
2023/07/07 09:49:45;;;;;;;1.00;0.40;;;;;;;;;;5098601;28;20051;-83
2023/07/07 09:52:36;;;;;;;1.77;0.50;;;;;;;;;;5115580;28;20416;-83
2023/07/07 09:55:03;;;;;;;0.80;0.50;;;;;;;;;;5102667;28;20130;-83
2023/07/07 09:57:36;;;;;;;0.90;0.50;;;;;;;;;;5115410;28;20103;-83
2023/07/07 10:00:03;;;;;;;3.90;0.70;;;;;;;;;;5114908;28;20058;-82
2023/07/07 10:05:34;;;;;;;1.98;0.57;;;;;;;;;;5115094;28;20100;-83
2023/07/07 10:08:02;;;;;;;1.17;0.47;;;;;;;;;;5114930;28;20059;-83
2023/07/07 10:10:28;;;;;;;1.20;0.70;;;;;;;;;;5098170;28;20043;-83
2023/07/07 10:12:54;;;;;;;3.05;0.68;;;;;;;;;;5114921;28;20423;-83
2023/07/07 10:15:23;;;;;;;1.60;0.50;;;;;;;;;;5098742;28;20515;-83
2023/07/07 10:17:59;;;;;;;1.63;0.60;;;;;;;;;;5115571;28;20048;-83
2023/07/07 10:20:25;;;;;;;2.22;0.50;;;;;;;;;;5116538;28;20054;-83
2023/07/07 10:22:52;;;;;;;3.90;0.60;;;;;;;;;;5114615;28;20047;-82
2023/07/07 10:25:19;;;;;;;3.03;0.50;;;;;;;;;;5115637;28;20086;-82
2023/07/07 10:27:51;;;;;;;0.93;0.45;;;;;;;;;;5114662;28;20044;-83
2023/07/07 10:30:17;;;;;;;1.40;0.52;;;;;;;;;;5097645;28;20507;-83
2023/07/07 10:32:43;;;;;;;2.45;0.60;;;;;;;;;;5114330;28;20044;-83
2023/07/07 10:35:16;;;;;;;1.88;0.65;;;;;;;;;;5115594;28;20043;-82
2023/07/07 10:37:42;;;;;;;1.60;0.50;;;;;;;;;;5115142;28;20569;-83
2023/07/07 10:40:21;;;;;;;1.63;0.57;;;;;;;;;;5097294;28;20047;-82
2023/07/07 10:42:51;;;;;;;1.38;0.45;;;;;;;;;;5115361;28;20055;-83
2023/07/07 10:45:17;;;;;;;1.35;0.40;;;;;;;;;;5098291;28;20051;-83
2023/07/07 10:47:43;;;;;;;1.58;0.40;;;;;;;;;;5113735;28;20051;-83
2023/07/07 10:50:12;;;;;;;1.10;0.50;;;;;;;;;;5114997;28;20051;-82
2023/07/07 10:53:02;;;;;;;2.25;0.70;;;;;;;;;;5114124;28;20100;-83
2023/07/07 10:55:35;;;;;;;1.98;0.50;;;;;;;;;;5114246;28;20051;-82
2023/07/07 10:58:10;;;;;;;0.70;0.32;;;;;;;;;;5115132;28;20043;-83
2023/07/07 11:00:59;;;;;;;2.08;0.45;;;;;;;;;;5113544;28;20056;-83
2023/07/07 11:03:44;;;;;;;0.98;0.55;;;;;;;;;;5097079;28;20044;-82
2023/07/07 11:06:13;;;;;;;1.20;0.55;;;;;;;;;;5113713;28;20035;-83
2023/07/07 11:08:58;;;;;;;2.47;1.20;;;;;;;;;;5113627;28;20391;-82
2023/07/07 11:11:43;;;;;;;1.05;0.40;;;;;;;;;;5113941;28;20051;-82
2023/07/07 11:14:29;;;;;;;0.75;0.50;;;;;;;;;;5113603;28;20047;-82
2023/07/07 11:17:04;;;;;;;1.92;0.60;;;;;;;;;;5114068;28;20051;-83
2023/07/07 11:19:50;;;;;;;0.75;0.40;;;;;;;;;;5096775;28;20047;-83
2023/07/07 11:22:22;;;;;;;0.82;0.40;;;;;;;;;;5113574;28;20054;-82
2023/07/07 11:25:07;;;;;;;0.75;0.40;;;;;;;;;;5114041;28;20066;-82
2023/07/07 11:27:39;;;;;;;0.90;0.50;;;;;;;;;;5113967;28;20078;-82
2023/07/07 11:30:24;;;;;;;0.47;0.40;;;;;;;;;;5113298;28;20553;-83
2023/07/07 11:32:53;;;;;;;3.20;0.60;;;;;;;;;;5113531;28;20052;-83
2023/07/07 11:35:26;;;;;;;3.33;0.68;;;;;;;;;;5097417;28;20044;-83
2023/07/07 11:37:52;;;;;;;0.80;0.45;;;;;;;;;;5114446;28;20044;-83
2023/07/07 11:40:37;;;;;;;1.38;0.35;;;;;;;;;;5113257;28;20043;-83
2023/07/07 11:43:23;;;;;;;0.80;0.60;;;;;;;;;;5113344;28;20056;-83
2023/07/07 11:46:08;;;;;;;0.60;0.40;;;;;;;;;;5062609;28;20048;-82
2023/07/07 11:48:49;;;;;;;0.82;0.40;;;;;;;;;;5112297;28;20044;-83
2023/07/07 11:51:18;;;;;;;0.82;0.50;;;;;;;;;;5113199;28;20488;-83
2023/07/07 11:54:04;;;;;;;1.77;0.50;;;;;;;;;;5113236;28;20135;-83
2023/07/07 11:56:36;;;;;;;1.15;0.40;;;;;;;;;;5096259;28;20039;-83
2023/07/07 11:59:21;;;;;;;3.08;0.57;;;;;;;;;;5112596;28;20496;-82
2023/07/07 12:01:49;;;;;;;1.92;0.60;;;;;;;;;;5095882;28;20134;-83
2023/07/07 12:04:15;;;;;;;1.95;0.40;;;;;;;;;;5112523;28;20039;-83
2023/07/07 12:06:47;;;;;;;1.77;0.50;;;;;;;;;;5095662;28;20083;-83
2023/07/07 12:09:17;;;;;;;1.08;0.40;;;;;;;;;;5096064;28;20055;-83
2023/07/07 12:11:46;;;;;;;1.02;0.40;;;;;;;;;;5114054;28;20048;-84
2023/07/07 12:14:12;;;;;;;0.88;0.40;;;;;;;;;;5114098;28;20047;-84
2023/07/07 12:16:39;;;;;;;1.13;0.50;;;;;;;;;;5112991;28;20134;-82
2023/07/07 12:19:17;;;;;;;0.90;0.50;;;;;;;;;;5112602;28;20043;-84
2023/07/07 12:21:44;;;;;;;0.98;0.50;;;;;;;;;;5112890;28;20065;-83
2023/07/07 12:24:16;;;;;;;1.05;0.50;;;;;;;;;;5112767;28;20051;-83
2023/07/07 12:26:45;;;;;;;0.90;0.40;;;;;;;;;;5112997;28;20417;-84
2023/07/07 12:29:13;;;;;;;2.25;0.60;;;;;;;;;;5113850;28;20404;-84
2023/07/07 12:31:39;;;;;;;2.78;0.32;;;;;;;;;;5112879;28;20455;-84
2023/07/07 12:34:39;;;;;;;0.80;0.50;;;;;;;;;;5095893;28;20047;-84
2023/07/07 12:37:06;;;;;;;1.67;0.40;;;;;;;;;;5069455;28;20091;-84
2023/07/07 12:39:34;;;;;;;2.35;0.50;;;;;;;;;;5112741;28;20047;-84
2023/07/07 12:42:00;;;;;;;0.80;0.60;;;;;;;;;;5112800;28;20055;-84
2023/07/07 12:44:26;;;;;;;0.80;0.50;;;;;;;;;;5112477;28;20485;-84
2023/07/07 12:46:52;;;;;;;0.98;0.50;;;;;;;;;;5112518;28;20050;-82
2023/07/07 12:49:26;;;;;;;0.70;0.40;;;;;;;;;;5113295;28;20055;-84
2023/07/07 12:51:58;;;;;;;0.90;0.50;;;;;;;;;;5112667;28;20480;-84
2023/07/07 12:54:30;;;;;;;0.88;0.52;;;;;;;;;;5112712;28;20047;-83
2023/07/07 12:57:01;;;;;;;0.50;0.40;;;;;;;;;;5112626;28;20497;-83
2023/07/07 12:59:38;;;;;;;0.82;0.45;;;;;;;;;;5096054;28;20512;-83
2023/07/07 13:02:25;;;;;;;2.40;0.40;;;;;;;;;;5116196;28;20055;-83
2023/07/07 13:04:55;;;;;;;0.60;0.40;;;;;;;;;;5117285;28;20184;-83
2023/07/07 13:07:28;;;;;;;1.08;0.60;;;;;;;;;;5116379;28;20404;-83
2023/07/07 13:09:54;;;;;;;0.82;0.47;;;;;;;;;;5116071;28;20047;-83
2023/07/07 13:12:39;;;;;;;1.00;0.40;;;;;;;;;;5117142;28;20050;-83
2023/07/07 13:15:14;;;;;;;0.85;0.60;;;;;;;;;;5116538;28;20130;-83
2023/07/07 13:17:40;;;;;;;1.95;0.40;;;;;;;;;;5115781;28;20393;-83
2023/07/07 13:20:08;;;;;;;1.42;0.40;;;;;;;;;;5115962;28;20059;-83
2023/07/07 13:22:38;;;;;;;1.23;0.60;;;;;;;;;;5115902;28;20048;-83
2023/07/07 13:25:08;;;;;;;1.90;0.60;;;;;;;;;;5117561;28;20116;-83
2023/07/07 13:27:35;;;;;;;1.50;0.50;;;;;;;;;;5115954;28;20044;-83
2023/07/07 13:30:27;;;;;;;1.70;0.68;;;;;;;;;;5117394;28;20412;-83
2023/07/07 13:32:55;;;;;;;1.15;0.50;;;;;;;;;;5111928;28;20059;-83
2023/07/07 13:35:21;;;;;;;1.33;0.70;;;;;;;;;;5115631;28;20051;-83
2023/07/07 13:37:47;;;;;;;0.77;0.50;;;;;;;;;;5115564;28;20044;-84
2023/07/07 13:40:15;;;;;;;2.13;0.70;;;;;;;;;;5116832;28;20050;-84
2023/07/07 13:42:44;;;;;;;0.90;0.70;;;;;;;;;;5116732;28;20050;-83
2023/07/07 13:45:14;;;;;;;1.70;0.70;;;;;;;;;;5116751;28;20043;-84
2023/07/07 13:47:42;;;;;;;1.08;0.70;;;;;;;;;;5115263;28;20285;-84
2023/07/07 13:50:12;;;;;;;0.88;0.60;;;;;;;;;;5115319;28;20048;-84
2023/07/07 13:52:42;;;;;;;2.92;0.60;;;;;;;;;;5115552;28;20114;-84
2023/07/07 13:55:11;;;;;;;2.30;0.50;;;;;;;;;;5115599;28;20128;-83
2023/07/07 13:57:38;;;;;;;2.20;0.60;;;;;;;;;;5115240;28;20130;-84
2023/07/07 14:00:05;;;;;;;1.70;0.57;;;;;;;;;;5098066;28;20106;-84
2023/07/07 14:02:31;;;;;;;0.93;0.50;;;;;;;;;;5116731;28;20146;-84
2023/07/07 14:05:05;;;;;;;1.10;0.50;;;;;;;;;;5116175;28;20557;-84
2023/07/07 14:07:35;;;;;;;1.52;0.50;;;;;;;;;;5114975;28;20051;-84
2023/07/07 14:10:01;;;;;;;1.88;0.80;;;;;;;;;;5115583;28;20047;-84
2023/07/07 14:12:28;;;;;;;1.05;0.40;;;;;;;;;;5114386;28;20043;-84
2023/07/07 14:14:56;;;;;;;0.85;0.38;;;;;;;;;;5115804;28;20044;-84
2023/07/07 14:17:35;;;;;;;1.30;0.50;;;;;;;;;;5097910;28;20043;-84
2023/07/07 14:20:01;;;;;;;1.05;0.52;;;;;;;;;;5098229;28;20514;-85
2023/07/07 14:22:29;;;;;;;0.77;0.40;;;;;;;;;;5098441;28;20036;-85
2023/07/07 14:24:55;;;;;;;1.30;0.50;;;;;;;;;;5116440;28;20047;-85
2023/07/07 14:27:22;;;;;;;1.88;0.47;;;;;;;;;;5114963;28;20550;-86
2023/07/07 14:29:48;;;;;;;1.38;0.47;;;;;;;;;;5116116;28;20100;-85
2023/07/07 14:32:16;;;;;;;1.85;0.47;;;;;;;;;;5116089;28;20040;-85
2023/07/07 14:34:52;;;;;;;2.15;0.50;;;;;;;;;;5116161;28;20039;-85
2023/07/07 14:37:22;;;;;;;2.13;0.70;;;;;;;;;;5116336;28;20082;-84
2023/07/07 14:39:50;;;;;;;1.48;0.50;;;;;;;;;;5114746;28;20134;-85
2023/07/07 14:42:21;;;;;;;1.42;0.50;;;;;;;;;;5115908;28;20131;-85
2023/07/07 14:44:48;;;;;;;2.30;0.57;;;;;;;;;;5114326;28;20374;-85
2023/07/07 14:47:24;;;;;;;0.70;0.40;;;;;;;;;;5097172;28;20055;-87
2023/07/07 14:49:51;;;;;;;1.65;0.40;;;;;;;;;;5115818;28;20108;-86